Whiteman Air Force Base, Missouri
Current Conditions -  °F | °C
As of 4:58 AM on Friday 28 Nov 2014 (Local Time) from KSZL Reporting Station
Clear Clear  
Wind Chill: 23°   Ceiling: Unl
Heat Index: 31°   Visibility: 10mi
Dew Point: 24°   Wind: 10mph
Humidity: 73%   Direction: 180°S
Pressure: 30.13"   Gusts: NA
Location:  38.7318°N, 93.5731°W
Report Text: KSZL 281058Z AUTO 18009KT 10SM CLR 00/M05 A3013 RMK AO2 SLP214 T10031046 $
Loading
Personal Weather Stations






























Interactive Weather Map New forecast layout! Learn more

10-Day Weather Forecast

Advertisements
Track Severe Weather on mobile